METAR TAF

[Source: ADDS]
METAR
LFCR 160630Z AUTO VRB02KT CAVOK 16/09 Q1018 NOSIG =
LFCR 160500Z 1606/1706 VRB02KT CAVOK BECMG 1610/1612 31008KT BECMG 1621/1623 VRB02KT LFBA 160630Z AUTO 31002KT CAVOK 18/12 Q1017 NOSIG =
LFBA 160500Z 1606/1615 VRB02KT CAVOK FM160900 30006KT CAVOK LFSL 160630Z AUTO 11003KT CAVOK 18/11 Q1018 NOSIG =
LFSL 160500Z 1606/1615 VRB02KT CAVOK BECMG 1610/1612 30006KT LFLW 160630Z AUTO VRB01KT CAVOK 15/09 Q1018 NOSIG =
LFLW 160500Z 1606/1615 VRB05KT CAVOK
TAF
LFCR 160500Z 1606/1706 VRB02KT CAVOK BECMG 1610/1612 31008KT BECMG 1621/1623 VRB02KT =
LFBA 160500Z 1606/1615 VRB02KT CAVOK FM160900 30006KT CAVOK =
LFSL 160500Z 1606/1615 VRB02KT CAVOK BECMG 1610/1612 30006KT =
LFLW 160500Z 1606/1615 VRB05KT CAVOK =
SR / SS: 04:25 / 19:35 UTC (LFCC 2019-07-16)